sensor_id;sensor_type;location;lat;lon;timestamp;temperature;humidity
12481;DHT22;6305;48.398;11.762;2024-02-23T00:01:34;7.80;99.90
12481;DHT22;6305;48.398;11.762;2024-02-23T00:04:01;7.80;99.90
12481;DHT22;6305;48.398;11.762;2024-02-23T00:06:28;7.70;99.90
12481;DHT22;6305;48.398;11.762;2024-02-23T00:08:55;7.60;99.90
12481;DHT22;6305;48.398;11.762;2024-02-23T00:11:23;7.60;99.90
12481;DHT22;6305;48.398;11.762;2024-02-23T00:13:51;7.50;99.90
12481;DHT22;6305;48.398;11.762;2024-02-23T00:16:19;7.50;99.90
12481;DHT22;6305;48.398;11.762;2024-02-23T00:18:46;7.40;99.90
12481;DHT22;6305;48.398;11.762;2024-02-23T00:21:12;7.40;99.90
12481;DHT22;6305;48.398;11.762;2024-02-23T00:23:39;7.30;99.90
12481;DHT22;6305;48.398;11.762;2024-02-23T00:26:06;7.30;99.90
12481;DHT22;6305;48.398;11.762;2024-02-23T00:28:34;7.20;99.90
12481;DHT22;6305;48.398;11.762;2024-02-23T00:31:02;7.10;99.90
12481;DHT22;6305;48.398;11.762;2024-02-23T00:33:29;7.10;99.90
12481;DHT22;6305;48.398;11.762;2024-02-23T00:35:56;7.10;99.90
12481;DHT22;6305;48.398;11.762;2024-02-23T00:38:23;7.00;99.90
12481;DHT22;6305;48.398;11.762;2024-02-23T00:40:50;7.00;99.90
12481;DHT22;6305;48.398;11.762;2024-02-23T00:43:19;7.00;99.90
12481;DHT22;6305;48.398;11.762;2024-02-23T00:45:45;6.90;99.90
12481;DHT22;6305;48.398;11.762;2024-02-23T00:48:14;6.90;99.90
12481;DHT22;6305;48.398;11.762;2024-02-23T00:50:41;6.90;99.90
12481;DHT22;6305;48.398;11.762;2024-02-23T00:53:07;6.80;99.90
12481;DHT22;6305;48.398;11.762;2024-02-23T00:55:34;6.80;99.90
12481;DHT22;6305;48.398;11.762;2024-02-23T00:58:01;6.80;99.90
12481;DHT22;6305;48.398;11.762;2024-02-23T01:00:29;6.80;99.90
12481;DHT22;6305;48.398;11.762;2024-02-23T01:02:56;6.70;99.90
12481;DHT22;6305;48.398;11.762;2024-02-23T01:05:26;6.70;99.90
12481;DHT22;6305;48.398;11.762;2024-02-23T01:07:53;6.70;99.90
12481;DHT22;6305;48.398;11.762;2024-02-23T01:10:20;6.70;99.90
12481;DHT22;6305;48.398;11.762;2024-02-23T01:12:46;6.60;99.90
12481;DHT22;6305;48.398;11.762;2024-02-23T01:15:13;6.60;99.90
12481;DHT22;6305;48.398;11.762;2024-02-23T01:17:40;6.60;99.90
12481;DHT22;6305;48.398;11.762;2024-02-23T01:20:08;6.60;99.90
12481;DHT22;6305;48.398;11.762;2024-02-23T01:22:36;6.60;99.90
12481;DHT22;6305;48.398;11.762;2024-02-23T01:25:04;6.60;99.90
12481;DHT22;6305;48.398;11.762;2024-02-23T01:27:31;6.60;99.90
12481;DHT22;6305;48.398;11.762;2024-02-23T01:29:58;6.60;99.90
12481;DHT22;6305;48.398;11.762;2024-02-23T01:32:25;6.60;99.90
12481;DHT22;6305;48.398;11.762;2024-02-23T01:34:52;6.60;99.90
12481;DHT22;6305;48.398;11.762;2024-02-23T01:37:19;6.60;99.90
12481;DHT22;6305;48.398;11.762;2024-02-23T01:39:47;6.60;99.90
12481;DHT22;6305;48.398;11.762;2024-02-23T01:42:14;6.60;99.90
12481;DHT22;6305;48.398;11.762;2024-02-23T01:44:41;6.60;99.90
12481;DHT22;6305;48.398;11.762;2024-02-23T01:47:08;6.60;99.90
12481;DHT22;6305;48.398;11.762;2024-02-23T01:49:35;6.60;99.90
12481;DHT22;6305;48.398;11.762;2024-02-23T01:52:03;6.70;99.90
12481;DHT22;6305;48.398;11.762;2024-02-23T01:54:31;6.70;99.90
12481;DHT22;6305;48.398;11.762;2024-02-23T01:56:59;6.70;99.90
12481;DHT22;6305;48.398;11.762;2024-02-23T01:59:27;6.70;99.90
12481;DHT22;6305;48.398;11.762;2024-02-23T02:01:55;6.80;99.90
12481;DHT22;6305;48.398;11.762;2024-02-23T02:04:22;6.80;99.90
12481;DHT22;6305;48.398;11.762;2024-02-23T02:06:49;6.80;99.90
12481;DHT22;6305;48.398;11.762;2024-02-23T02:09:17;6.80;99.90
12481;DHT22;6305;48.398;11.762;2024-02-23T02:11:47;6.90;99.90
12481;DHT22;6305;48.398;11.762;2024-02-23T02:14:15;6.90;99.90
12481;DHT22;6305;48.398;11.762;2024-02-23T02:16:43;6.90;99.90
12481;DHT22;6305;48.398;11.762;2024-02-23T02:19:10;6.90;99.90
12481;DHT22;6305;48.398;11.762;2024-02-23T02:21:37;6.80;99.90
12481;DHT22;6305;48.398;11.762;2024-02-23T02:24:06;6.80;99.90
12481;DHT22;6305;48.398;11.762;2024-02-23T02:26:35;6.80;99.90
12481;DHT22;6305;48.398;11.762;2024-02-23T02:29:02;6.80;99.90
12481;DHT22;6305;48.398;11.762;2024-02-23T02:31:31;6.90;99.90
12481;DHT22;6305;48.398;11.762;2024-02-23T02:34:03;6.90;99.90
12481;DHT22;6305;48.398;11.762;2024-02-23T02:36:30;6.90;99.90
12481;DHT22;6305;48.398;11.762;2024-02-23T02:38:57;6.80;99.90
12481;DHT22;6305;48.398;11.762;2024-02-23T02:41:24;6.80;99.90
12481;DHT22;6305;48.398;11.762;2024-02-23T02:43:54;6.80;99.90
12481;DHT22;6305;48.398;11.762;2024-02-23T02:46:21;6.80;99.90
12481;DHT22;6305;48.398;11.762;2024-02-23T02:48:49;6.80;99.90
12481;DHT22;6305;48.398;11.762;2024-02-23T02:51:16;6.70;99.90
12481;DHT22;6305;48.398;11.762;2024-02-23T02:53:43;6.60;99.90
12481;DHT22;6305;48.398;11.762;2024-02-23T02:56:09;6.50;99.90
12481;DHT22;6305;48.398;11.762;2024-02-23T02:58:36;6.40;99.90
12481;DHT22;6305;48.398;11.762;2024-02-23T03:01:03;6.30;99.90
12481;DHT22;6305;48.398;11.762;2024-02-23T03:03:30;6.00;99.90
12481;DHT22;6305;48.398;11.762;2024-02-23T03:05:58;5.70;99.90
12481;DHT22;6305;48.398;11.762;2024-02-23T03:08:25;5.50;99.90
12481;DHT22;6305;48.398;11.762;2024-02-23T03:10:52;5.40;99.90
12481;DHT22;6305;48.398;11.762;2024-02-23T03:13:19;5.30;99.90
12481;DHT22;6305;48.398;11.762;2024-02-23T03:15:46;5.10;99.90
12481;DHT22;6305;48.398;11.762;2024-02-23T03:18:13;5.00;99.90
12481;DHT22;6305;48.398;11.762;2024-02-23T03:20:40;5.00;99.90
12481;DHT22;6305;48.398;11.762;2024-02-23T03:23:09;4.90;99.90
12481;DHT22;6305;48.398;11.762;2024-02-23T03:25:35;4.80;99.90
12481;DHT22;6305;48.398;11.762;2024-02-23T03:28:03;4.80;99.90
12481;DHT22;6305;48.398;11.762;2024-02-23T03:30:30;4.70;99.90
12481;DHT22;6305;48.398;11.762;2024-02-23T03:32:57;4.70;99.90
12481;DHT22;6305;48.398;11.762;2024-02-23T03:35:24;4.70;99.90
12481;DHT22;6305;48.398;11.762;2024-02-23T03:37:51;4.60;99.90
12481;DHT22;6305;48.398;11.762;2024-02-23T03:40:19;4.60;99.90
12481;DHT22;6305;48.398;11.762;2024-02-23T03:42:46;4.60;99.90
12481;DHT22;6305;48.398;11.762;2024-02-23T03:45:12;4.60;99.90
12481;DHT22;6305;48.398;11.762;2024-02-23T03:47:39;4.60;99.90
12481;DHT22;6305;48.398;11.762;2024-02-23T03:50:06;4.60;99.90
12481;DHT22;6305;48.398;11.762;2024-02-23T03:52:34;4.50;99.90
12481;DHT22;6305;48.398;11.762;2024-02-23T03:55:01;4.50;99.90
12481;DHT22;6305;48.398;11.762;2024-02-23T03:57:31;4.40;99.90
12481;DHT22;6305;48.398;11.762;2024-02-23T03:59:58;4.40;99.90
12481;DHT22;6305;48.398;11.762;2024-02-23T04:02:25;4.30;99.90
12481;DHT22;6305;48.398;11.762;2024-02-23T04:04:52;4.30;99.90
12481;DHT22;6305;48.398;11.762;2024-02-23T04:07:19;4.30;99.90
12481;DHT22;6305;48.398;11.762;2024-02-23T04:09:46;4.30;99.90
12481;DHT22;6305;48.398;11.762;2024-02-23T04:12:18;4.20;99.90
12481;DHT22;6305;48.398;11.762;2024-02-23T04:14:46;4.20;99.90
12481;DHT22;6305;48.398;11.762;2024-02-23T04:17:13;4.20;99.90
12481;DHT22;6305;48.398;11.762;2024-02-23T04:19:41;4.20;99.90
12481;DHT22;6305;48.398;11.762;2024-02-23T04:22:08;4.20;99.90
12481;DHT22;6305;48.398;11.762;2024-02-23T04:24:37;4.20;99.90
12481;DHT22;6305;48.398;11.762;2024-02-23T04:27:04;4.20;99.90
12481;DHT22;6305;48.398;11.762;2024-02-23T04:29:31;4.10;99.90
12481;DHT22;6305;48.398;11.762;2024-02-23T04:32:01;4.20;99.90
12481;DHT22;6305;48.398;11.762;2024-02-23T04:34:28;4.10;99.90
12481;DHT22;6305;48.398;11.762;2024-02-23T04:36:55;4.10;99.90
12481;DHT22;6305;48.398;11.762;2024-02-23T04:39:22;4.20;99.90
12481;DHT22;6305;48.398;11.762;2024-02-23T04:41:49;4.20;99.90
12481;DHT22;6305;48.398;11.762;2024-02-23T04:44:16;4.20;99.90
12481;DHT22;6305;48.398;11.762;2024-02-23T04:46:43;4.10;99.90
12481;DHT22;6305;48.398;11.762;2024-02-23T04:49:11;4.20;99.90
12481;DHT22;6305;48.398;11.762;2024-02-23T04:51:38;4.20;99.90
12481;DHT22;6305;48.398;11.762;2024-02-23T04:54:06;4.10;99.90
12481;DHT22;6305;48.398;11.762;2024-02-23T04:56:33;4.10;99.90
12481;DHT22;6305;48.398;11.762;2024-02-23T04:59:00;4.10;99.90
12481;DHT22;6305;48.398;11.762;2024-02-23T05:01:27;4.10;99.90
12481;DHT22;6305;48.398;11.762;2024-02-23T05:03:54;4.10;99.90
12481;DHT22;6305;48.398;11.762;2024-02-23T05:06:22;4.10;99.90
12481;DHT22;6305;48.398;11.762;2024-02-23T05:08:49;4.10;99.90
12481;DHT22;6305;48.398;11.762;2024-02-23T05:11:16;4.10;99.90
12481;DHT22;6305;48.398;11.762;2024-02-23T05:13:43;4.10;99.90
12481;DHT22;6305;48.398;11.762;2024-02-23T05:16:10;4.10;99.90
12481;DHT22;6305;48.398;11.762;2024-02-23T05:18:36;4.10;99.90
12481;DHT22;6305;48.398;11.762;2024-02-23T05:21:03;4.10;99.90
12481;DHT22;6305;48.398;11.762;2024-02-23T05:23:32;4.10;99.90
12481;DHT22;6305;48.398;11.762;2024-02-23T05:25:59;4.10;99.90
12481;DHT22;6305;48.398;11.762;2024-02-23T05:28:25;4.10;99.90
12481;DHT22;6305;48.398;11.762;2024-02-23T05:30:54;4.00;99.90
12481;DHT22;6305;48.398;11.762;2024-02-23T05:33:22;4.10;99.90
12481;DHT22;6305;48.398;11.762;2024-02-23T05:35:50;4.10;99.90
12481;DHT22;6305;48.398;11.762;2024-02-23T05:38:17;4.10;99.90
12481;DHT22;6305;48.398;11.762;2024-02-23T05:40:46;4.10;99.90
12481;DHT22;6305;48.398;11.762;2024-02-23T05:43:14;4.10;99.90
12481;DHT22;6305;48.398;11.762;2024-02-23T05:45:41;4.10;99.90
12481;DHT22;6305;48.398;11.762;2024-02-23T05:48:09;4.10;99.90
12481;DHT22;6305;48.398;11.762;2024-02-23T05:50:36;4.10;99.90
12481;DHT22;6305;48.398;11.762;2024-02-23T05:53:03;4.10;99.90
12481;DHT22;6305;48.398;11.762;2024-02-23T05:55:30;4.10;99.90
12481;DHT22;6305;48.398;11.762;2024-02-23T05:57:59;4.00;99.90
12481;DHT22;6305;48.398;11.762;2024-02-23T06:00:26;4.10;99.90
12481;DHT22;6305;48.398;11.762;2024-02-23T06:02:53;4.00;99.90
12481;DHT22;6305;48.398;11.762;2024-02-23T06:05:20;4.00;99.90
12481;DHT22;6305;48.398;11.762;2024-02-23T06:07:47;4.00;99.90
12481;DHT22;6305;48.398;11.762;2024-02-23T06:10:14;4.00;99.90
12481;DHT22;6305;48.398;11.762;2024-02-23T06:12:41;4.00;99.90
12481;DHT22;6305;48.398;11.762;2024-02-23T06:15:09;4.00;99.90
12481;DHT22;6305;48.398;11.762;2024-02-23T06:17:37;4.00;99.90
12481;DHT22;6305;48.398;11.762;2024-02-23T06:20:07;3.90;99.90
12481;DHT22;6305;48.398;11.762;2024-02-23T06:22:35;3.90;99.90
12481;DHT22;6305;48.398;11.762;2024-02-23T06:25:02;3.90;99.90
12481;DHT22;6305;48.398;11.762;2024-02-23T06:27:29;4.00;99.90
12481;DHT22;6305;48.398;11.762;2024-02-23T06:29:56;3.90;99.90
12481;DHT22;6305;48.398;11.762;2024-02-23T06:32:24;4.00;99.90
12481;DHT22;6305;48.398;11.762;2024-02-23T06:34:51;4.00;99.90
12481;DHT22;6305;48.398;11.762;2024-02-23T06:37:18;4.00;99.90
12481;DHT22;6305;48.398;11.762;2024-02-23T06:39:44;4.10;99.90
12481;DHT22;6305;48.398;11.762;2024-02-23T06:42:15;4.10;99.90
12481;DHT22;6305;48.398;11.762;2024-02-23T06:44:42;4.10;99.90
12481;DHT22;6305;48.398;11.762;2024-02-23T06:47:09;4.10;99.90
12481;DHT22;6305;48.398;11.762;2024-02-23T06:49:41;4.10;99.90
12481;DHT22;6305;48.398;11.762;2024-02-23T06:52:08;4.20;99.90
12481;DHT22;6305;48.398;11.762;2024-02-23T06:54:35;4.20;99.90
12481;DHT22;6305;48.398;11.762;2024-02-23T06:57:02;4.30;99.90
12481;DHT22;6305;48.398;11.762;2024-02-23T06:59:29;4.40;99.90
12481;DHT22;6305;48.398;11.762;2024-02-23T07:01:57;4.30;99.90
12481;DHT22;6305;48.398;11.762;2024-02-23T07:04:24;4.30;99.90
12481;DHT22;6305;48.398;11.762;2024-02-23T07:06:53;4.40;99.90
12481;DHT22;6305;48.398;11.762;2024-02-23T07:09:21;4.40;99.90
12481;DHT22;6305;48.398;11.762;2024-02-23T07:11:48;4.40;99.90
12481;DHT22;6305;48.398;11.762;2024-02-23T07:14:15;4.50;99.90
12481;DHT22;6305;48.398;11.762;2024-02-23T07:16:43;4.50;99.90
12481;DHT22;6305;48.398;11.762;2024-02-23T07:19:10;4.60;99.90
12481;DHT22;6305;48.398;11.762;2024-02-23T07:21:38;4.70;99.90
12481;DHT22;6305;48.398;11.762;2024-02-23T07:24:07;4.80;99.90
12481;DHT22;6305;48.398;11.762;2024-02-23T07:26:34;4.80;99.90
12481;DHT22;6305;48.398;11.762;2024-02-23T07:29:01;4.90;99.90
12481;DHT22;6305;48.398;11.762;2024-02-23T07:31:28;4.90;99.90
12481;DHT22;6305;48.398;11.762;2024-02-23T07:33:56;4.80;99.90
12481;DHT22;6305;48.398;11.762;2024-02-23T07:36:22;4.80;99.90
12481;DHT22;6305;48.398;11.762;2024-02-23T07:38:49;4.70;99.90
12481;DHT22;6305;48.398;11.762;2024-02-23T07:41:18;4.80;99.90
12481;DHT22;6305;48.398;11.762;2024-02-23T07:43:44;4.80;99.90
12481;DHT22;6305;48.398;11.762;2024-02-23T07:46:12;4.90;99.90
12481;DHT22;6305;48.398;11.762;2024-02-23T07:48:39;4.80;99.90
12481;DHT22;6305;48.398;11.762;2024-02-23T07:51:06;4.80;99.90
12481;DHT22;6305;48.398;11.762;2024-02-23T07:53:33;4.80;99.90
12481;DHT22;6305;48.398;11.762;2024-02-23T07:56:00;4.80;99.90
12481;DHT22;6305;48.398;11.762;2024-02-23T07:58:29;4.80;99.90
12481;DHT22;6305;48.398;11.762;2024-02-23T08:00:56;4.80;99.90
12481;DHT22;6305;48.398;11.762;2024-02-23T08:03:23;4.80;99.90
12481;DHT22;6305;48.398;11.762;2024-02-23T08:05:50;4.90;99.90
12481;DHT22;6305;48.398;11.762;2024-02-23T08:08:17;5.00;99.90
12481;DHT22;6305;48.398;11.762;2024-02-23T08:10:44;5.10;99.90
12481;DHT22;6305;48.398;11.762;2024-02-23T08:13:11;5.20;99.90
12481;DHT22;6305;48.398;11.762;2024-02-23T08:15:39;5.30;99.90
12481;DHT22;6305;48.398;11.762;2024-02-23T08:18:06;5.40;99.90
12481;DHT22;6305;48.398;11.762;2024-02-23T08:20:33;5.50;99.90
12481;DHT22;6305;48.398;11.762;2024-02-23T08:23:00;5.50;99.90
12481;DHT22;6305;48.398;11.762;2024-02-23T08:25:27;5.70;99.90
12481;DHT22;6305;48.398;11.762;2024-02-23T08:27:55;5.70;99.90
12481;DHT22;6305;48.398;11.762;2024-02-23T08:30:22;5.70;99.90
12481;DHT22;6305;48.398;11.762;2024-02-23T08:32:50;5.70;99.90
12481;DHT22;6305;48.398;11.762;2024-02-23T08:35:17;5.70;99.90
12481;DHT22;6305;48.398;11.762;2024-02-23T08:37:44;5.70;99.90
12481;DHT22;6305;48.398;11.762;2024-02-23T08:40:11;5.80;99.90
12481;DHT22;6305;48.398;11.762;2024-02-23T08:42:38;5.90;99.90
12481;DHT22;6305;48.398;11.762;2024-02-23T08:45:06;6.00;99.90
12481;DHT22;6305;48.398;11.762;2024-02-23T08:47:33;6.10;99.90
12481;DHT22;6305;48.398;11.762;2024-02-23T08:50:02;6.20;99.90
12481;DHT22;6305;48.398;11.762;2024-02-23T08:52:30;6.30;99.90
12481;DHT22;6305;48.398;11.762;2024-02-23T08:54:57;6.50;99.90
12481;DHT22;6305;48.398;11.762;2024-02-23T08:57:24;6.60;99.90
12481;DHT22;6305;48.398;11.762;2024-02-23T08:59:51;6.70;99.90
12481;DHT22;6305;48.398;11.762;2024-02-23T09:02:19;6.70;99.90
12481;DHT22;6305;48.398;11.762;2024-02-23T09:04:46;6.50;99.90
12481;DHT22;6305;48.398;11.762;2024-02-23T09:07:14;6.50;99.90
12481;DHT22;6305;48.398;11.762;2024-02-23T09:09:41;6.50;99.90
12481;DHT22;6305;48.398;11.762;2024-02-23T09:12:08;6.30;99.90
12481;DHT22;6305;48.398;11.762;2024-02-23T09:14:36;6.30;99.90
12481;DHT22;6305;48.398;11.762;2024-02-23T09:17:04;6.20;99.90
12481;DHT22;6305;48.398;11.762;2024-02-23T09:19:34;6.10;99.90
12481;DHT22;6305;48.398;11.762;2024-02-23T09:22:01;6.20;99.90
12481;DHT22;6305;48.398;11.762;2024-02-23T09:24:29;6.30;99.90
12481;DHT22;6305;48.398;11.762;2024-02-23T09:26:56;6.40;99.90
12481;DHT22;6305;48.398;11.762;2024-02-23T09:29:23;6.50;99.90
12481;DHT22;6305;48.398;11.762;2024-02-23T09:31:50;6.30;99.90
12481;DHT22;6305;48.398;11.762;2024-02-23T09:34:18;6.30;99.90
12481;DHT22;6305;48.398;11.762;2024-02-23T09:36:45;6.20;99.90
12481;DHT22;6305;48.398;11.762;2024-02-23T09:39:12;6.10;99.90
12481;DHT22;6305;48.398;11.762;2024-02-23T09:41:42;6.10;99.90
12481;DHT22;6305;48.398;11.762;2024-02-23T09:44:09;6.20;99.90
12481;DHT22;6305;48.398;11.762;2024-02-23T09:46:37;6.20;99.90
12481;DHT22;6305;48.398;11.762;2024-02-23T09:49:04;6.20;99.90
12481;DHT22;6305;48.398;11.762;2024-02-23T09:51:34;6.30;99.90
12481;DHT22;6305;48.398;11.762;2024-02-23T09:54:02;6.30;99.90
12481;DHT22;6305;48.398;11.762;2024-02-23T09:56:30;6.40;99.90
12481;DHT22;6305;48.398;11.762;2024-02-23T09:59:02;6.50;99.90
12481;DHT22;6305;48.398;11.762;2024-02-23T10:01:30;6.60;99.90
12481;DHT22;6305;48.398;11.762;2024-02-23T10:03:59;6.60;99.90
12481;DHT22;6305;48.398;11.762;2024-02-23T10:06:27;6.60;99.90
12481;DHT22;6305;48.398;11.762;2024-02-23T10:08:54;6.70;99.90
12481;DHT22;6305;48.398;11.762;2024-02-23T10:11:22;6.90;99.90
12481;DHT22;6305;48.398;11.762;2024-02-23T10:13:49;7.00;99.90
12481;DHT22;6305;48.398;11.762;2024-02-23T10:16:19;7.10;99.90
12481;DHT22;6305;48.398;11.762;2024-02-23T10:18:46;7.20;99.90
12481;DHT22;6305;48.398;11.762;2024-02-23T10:21:14;7.30;99.90
12481;DHT22;6305;48.398;11.762;2024-02-23T10:23:41;7.30;99.90
12481;DHT22;6305;48.398;11.762;2024-02-23T10:26:08;7.30;99.90
12481;DHT22;6305;48.398;11.762;2024-02-23T10:28:36;7.40;99.90
12481;DHT22;6305;48.398;11.762;2024-02-23T10:31:04;7.40;99.90
12481;DHT22;6305;48.398;11.762;2024-02-23T10:33:33;7.50;99.90
12481;DHT22;6305;48.398;11.762;2024-02-23T10:36:01;7.50;99.90
12481;DHT22;6305;48.398;11.762;2024-02-23T10:38:32;7.60;99.90
12481;DHT22;6305;48.398;11.762;2024-02-23T10:41:02;7.60;99.90
12481;DHT22;6305;48.398;11.762;2024-02-23T10:43:35;7.60;99.90
12481;DHT22;6305;48.398;11.762;2024-02-23T10:46:03;7.60;99.90
12481;DHT22;6305;48.398;11.762;2024-02-23T10:48:36;7.60;99.90
12481;DHT22;6305;48.398;11.762;2024-02-23T10:51:05;7.60;99.90
12481;DHT22;6305;48.398;11.762;2024-02-23T10:53:34;7.60;99.90
12481;DHT22;6305;48.398;11.762;2024-02-23T10:56:03;7.70;99.90
12481;DHT22;6305;48.398;11.762;2024-02-23T10:58:31;7.80;99.90
12481;DHT22;6305;48.398;11.762;2024-02-23T11:00:59;7.90;99.90
12481;DHT22;6305;48.398;11.762;2024-02-23T11:03:28;7.80;99.90
12481;DHT22;6305;48.398;11.762;2024-02-23T11:05:57;7.80;99.90
12481;DHT22;6305;48.398;11.762;2024-02-23T11:08:23;7.80;99.90
12481;DHT22;6305;48.398;11.762;2024-02-23T11:10:51;7.80;99.90
12481;DHT22;6305;48.398;11.762;2024-02-23T11:13:18;7.80;99.90
12481;DHT22;6305;48.398;11.762;2024-02-23T11:15:45;7.90;99.90
12481;DHT22;6305;48.398;11.762;2024-02-23T11:18:22;7.90;99.90
12481;DHT22;6305;48.398;11.762;2024-02-23T11:20:55;7.90;99.90
12481;DHT22;6305;48.398;11.762;2024-02-23T11:23:22;7.90;99.90
12481;DHT22;6305;48.398;11.762;2024-02-23T11:26:04;7.90;99.90
12481;DHT22;6305;48.398;11.762;2024-02-23T11:28:32;7.90;99.90
12481;DHT22;6305;48.398;11.762;2024-02-23T11:30:59;7.80;99.90
12481;DHT22;6305;48.398;11.762;2024-02-23T11:33:28;7.90;99.90
12481;DHT22;6305;48.398;11.762;2024-02-23T11:36:06;7.90;99.90
12481;DHT22;6305;48.398;11.762;2024-02-23T11:38:34;8.00;99.90
12481;DHT22;6305;48.398;11.762;2024-02-23T11:41:01;8.00;99.90
12481;DHT22;6305;48.398;11.762;2024-02-23T11:43:29;8.00;99.90
12481;DHT22;6305;48.398;11.762;2024-02-23T11:45:55;8.00;99.90
12481;DHT22;6305;48.398;11.762;2024-02-23T11:48:23;8.00;99.90
12481;DHT22;6305;48.398;11.762;2024-02-23T11:50:50;7.90;99.90
12481;DHT22;6305;48.398;11.762;2024-02-23T11:53:18;8.00;99.90
12481;DHT22;6305;48.398;11.762;2024-02-23T11:55:48;8.10;99.90
12481;DHT22;6305;48.398;11.762;2024-02-23T11:58:15;8.10;99.90
12481;DHT22;6305;48.398;11.762;2024-02-23T12:00:43;8.10;99.90
12481;DHT22;6305;48.398;11.762;2024-02-23T12:03:11;8.00;99.90
12481;DHT22;6305;48.398;11.762;2024-02-23T12:05:38;7.90;99.90
12481;DHT22;6305;48.398;11.762;2024-02-23T12:08:05;7.80;99.90
12481;DHT22;6305;48.398;11.762;2024-02-23T12:10:34;7.70;99.90
12481;DHT22;6305;48.398;11.762;2024-02-23T12:13:02;7.80;99.90
12481;DHT22;6305;48.398;11.762;2024-02-23T12:15:30;7.80;99.90
12481;DHT22;6305;48.398;11.762;2024-02-23T12:17:58;7.80;99.90
12481;DHT22;6305;48.398;11.762;2024-02-23T12:20:26;7.70;99.90
12481;DHT22;6305;48.398;11.762;2024-02-23T12:22:55;7.70;99.90
12481;DHT22;6305;48.398;11.762;2024-02-23T12:25:22;7.70;99.90
12481;DHT22;6305;48.398;11.762;2024-02-23T12:27:55;7.70;99.90
12481;DHT22;6305;48.398;11.762;2024-02-23T12:30:23;7.60;99.90
12481;DHT22;6305;48.398;11.762;2024-02-23T12:32:52;7.50;99.90
12481;DHT22;6305;48.398;11.762;2024-02-23T12:35:29;7.40;99.90
12481;DHT22;6305;48.398;11.762;2024-02-23T12:37:56;7.40;99.90
12481;DHT22;6305;48.398;11.762;2024-02-23T12:40:23;7.40;99.90
12481;DHT22;6305;48.398;11.762;2024-02-23T12:42:50;7.40;99.90
12481;DHT22;6305;48.398;11.762;2024-02-23T12:45:18;7.40;99.90
12481;DHT22;6305;48.398;11.762;2024-02-23T12:47:45;7.30;99.90
12481;DHT22;6305;48.398;11.762;2024-02-23T12:50:12;7.50;99.90
12481;DHT22;6305;48.398;11.762;2024-02-23T12:52:39;7.60;99.90
12481;DHT22;6305;48.398;11.762;2024-02-23T12:55:07;7.70;99.90
12481;DHT22;6305;48.398;11.762;2024-02-23T12:57:34;7.70;99.90
12481;DHT22;6305;48.398;11.762;2024-02-23T13:00:02;7.60;99.90
12481;DHT22;6305;48.398;11.762;2024-02-23T13:02:32;7.50;99.90
12481;DHT22;6305;48.398;11.762;2024-02-23T13:04:59;7.50;99.90
12481;DHT22;6305;48.398;11.762;2024-02-23T13:07:26;7.40;99.90
12481;DHT22;6305;48.398;11.762;2024-02-23T13:09:53;7.40;99.90
12481;DHT22;6305;48.398;11.762;2024-02-23T13:12:20;7.20;99.90
12481;DHT22;6305;48.398;11.762;2024-02-23T13:14:46;7.10;99.90
12481;DHT22;6305;48.398;11.762;2024-02-23T13:17:13;7.10;99.90
12481;DHT22;6305;48.398;11.762;2024-02-23T13:19:42;7.10;99.90
12481;DHT22;6305;48.398;11.762;2024-02-23T13:22:09;7.10;99.90
12481;DHT22;6305;48.398;11.762;2024-02-23T13:24:36;7.10;99.90
12481;DHT22;6305;48.398;11.762;2024-02-23T13:27:05;7.10;99.90
12481;DHT22;6305;48.398;11.762;2024-02-23T13:29:33;7.10;99.90
12481;DHT22;6305;48.398;11.762;2024-02-23T13:31:59;7.10;99.90
12481;DHT22;6305;48.398;11.762;2024-02-23T13:34:26;6.90;99.90
12481;DHT22;6305;48.398;11.762;2024-02-23T13:36:55;6.90;99.90
12481;DHT22;6305;48.398;11.762;2024-02-23T13:39:22;6.80;99.90
12481;DHT22;6305;48.398;11.762;2024-02-23T13:41:49;6.80;99.90
12481;DHT22;6305;48.398;11.762;2024-02-23T13:44:16;6.70;99.90
12481;DHT22;6305;48.398;11.762;2024-02-23T13:46:43;6.60;99.90
12481;DHT22;6305;48.398;11.762;2024-02-23T13:49:10;6.50;99.90
12481;DHT22;6305;48.398;11.762;2024-02-23T13:51:38;6.50;99.90
12481;DHT22;6305;48.398;11.762;2024-02-23T13:54:06;6.50;99.90
12481;DHT22;6305;48.398;11.762;2024-02-23T13:56:33;6.40;99.90
12481;DHT22;6305;48.398;11.762;2024-02-23T13:59:00;6.40;99.90
12481;DHT22;6305;48.398;11.762;2024-02-23T14:01:28;6.40;99.90
12481;DHT22;6305;48.398;11.762;2024-02-23T14:03:55;6.50;99.90
12481;DHT22;6305;48.398;11.762;2024-02-23T14:06:21;6.60;99.90
12481;DHT22;6305;48.398;11.762;2024-02-23T14:08:49;6.60;99.90
12481;DHT22;6305;48.398;11.762;2024-02-23T14:11:17;6.60;99.90
12481;DHT22;6305;48.398;11.762;2024-02-23T14:13:45;6.70;99.90
12481;DHT22;6305;48.398;11.762;2024-02-23T14:16:12;6.70;99.90
12481;DHT22;6305;48.398;11.762;2024-02-23T14:18:39;6.70;99.90
12481;DHT22;6305;48.398;11.762;2024-02-23T14:21:08;6.80;99.90
12481;DHT22;6305;48.398;11.762;2024-02-23T14:23:36;6.80;99.90
12481;DHT22;6305;48.398;11.762;2024-02-23T14:26:03;6.70;99.90
12481;DHT22;6305;48.398;11.762;2024-02-23T14:28:32;6.70;99.90
12481;DHT22;6305;48.398;11.762;2024-02-23T14:30:59;6.60;99.90
12481;DHT22;6305;48.398;11.762;2024-02-23T14:33:26;6.50;99.90
12481;DHT22;6305;48.398;11.762;2024-02-23T14:35:53;6.50;99.90
12481;DHT22;6305;48.398;11.762;2024-02-23T14:38:21;6.40;99.90
12481;DHT22;6305;48.398;11.762;2024-02-23T14:40:48;6.40;99.90
12481;DHT22;6305;48.398;11.762;2024-02-23T14:43:15;6.30;99.90
12481;DHT22;6305;48.398;11.762;2024-02-23T14:45:44;6.20;99.90
12481;DHT22;6305;48.398;11.762;2024-02-23T14:48:11;6.10;99.90
12481;DHT22;6305;48.398;11.762;2024-02-23T14:50:39;6.00;99.90
12481;DHT22;6305;48.398;11.762;2024-02-23T14:53:06;5.90;99.90
12481;DHT22;6305;48.398;11.762;2024-02-23T14:55:34;5.90;99.90
12481;DHT22;6305;48.398;11.762;2024-02-23T14:58:01;5.90;99.90
12481;DHT22;6305;48.398;11.762;2024-02-23T15:00:28;5.90;99.90
12481;DHT22;6305;48.398;11.762;2024-02-23T15:02:57;5.90;99.90
12481;DHT22;6305;48.398;11.762;2024-02-23T15:05:24;5.90;99.90
12481;DHT22;6305;48.398;11.762;2024-02-23T15:07:51;5.90;99.90
12481;DHT22;6305;48.398;11.762;2024-02-23T15:10:18;6.00;99.90
12481;DHT22;6305;48.398;11.762;2024-02-23T15:12:45;6.10;99.90
12481;DHT22;6305;48.398;11.762;2024-02-23T15:15:12;6.10;99.90
12481;DHT22;6305;48.398;11.762;2024-02-23T15:17:39;6.00;99.90
12481;DHT22;6305;48.398;11.762;2024-02-23T15:20:10;5.90;99.90
12481;DHT22;6305;48.398;11.762;2024-02-23T15:22:37;5.80;99.90
12481;DHT22;6305;48.398;11.762;2024-02-23T15:25:08;5.80;99.90
12481;DHT22;6305;48.398;11.762;2024-02-23T15:27:35;5.80;99.90
12481;DHT22;6305;48.398;11.762;2024-02-23T15:30:03;5.70;99.90
12481;DHT22;6305;48.398;11.762;2024-02-23T15:32:33;5.70;99.90
12481;DHT22;6305;48.398;11.762;2024-02-23T15:35:01;5.60;99.90
12481;DHT22;6305;48.398;11.762;2024-02-23T15:37:30;5.60;99.90
12481;DHT22;6305;48.398;11.762;2024-02-23T15:39:57;5.60;99.90
12481;DHT22;6305;48.398;11.762;2024-02-23T15:42:24;5.50;99.90
12481;DHT22;6305;48.398;11.762;2024-02-23T15:44:51;5.50;99.90
12481;DHT22;6305;48.398;11.762;2024-02-23T15:47:20;5.40;99.90